sensor_id;sensor_type;location;lat;lon;timestamp;P1;durP1;ratioP1;P2;durP2;ratioP2
33760;SDS011;20084;47.912;19.044;2024-02-23T00:01:43;1.23;;;0.88;;
33760;SDS011;20084;47.912;19.044;2024-02-23T00:04:09;1.42;;;1.00;;
33760;SDS011;20084;47.912;19.044;2024-02-23T00:06:35;2.30;;;1.13;;
33760;SDS011;20084;47.912;19.044;2024-02-23T00:09:00;1.00;;;0.80;;
33760;SDS011;20084;47.912;19.044;2024-02-23T00:11:26;2.28;;;1.10;;
33760;SDS011;20084;47.912;19.044;2024-02-23T00:13:53;1.15;;;0.80;;
33760;SDS011;20084;47.912;19.044;2024-02-23T00:16:19;1.17;;;0.90;;
33760;SDS011;20084;47.912;19.044;2024-02-23T00:18:44;0.95;;;0.93;;
33760;SDS011;20084;47.912;19.044;2024-02-23T00:21:10;3.80;;;0.90;;
33760;SDS011;20084;47.912;19.044;2024-02-23T00:23:35;2.10;;;1.17;;
33760;SDS011;20084;47.912;19.044;2024-02-23T00:26:01;0.93;;;0.90;;
33760;SDS011;20084;47.912;19.044;2024-02-23T00:28:27;1.05;;;0.75;;
33760;SDS011;20084;47.912;19.044;2024-02-23T00:30:53;1.70;;;1.08;;
33760;SDS011;20084;47.912;19.044;2024-02-23T00:33:18;1.63;;;1.13;;
33760;SDS011;20084;47.912;19.044;2024-02-23T00:35:44;2.22;;;0.95;;
33760;SDS011;20084;47.912;19.044;2024-02-23T00:38:10;2.00;;;1.23;;
33760;SDS011;20084;47.912;19.044;2024-02-23T00:40:36;2.17;;;1.10;;
33760;SDS011;20084;47.912;19.044;2024-02-23T00:43:01;2.53;;;1.20;;
33760;SDS011;20084;47.912;19.044;2024-02-23T00:45:28;2.70;;;1.10;;
33760;SDS011;20084;47.912;19.044;2024-02-23T00:47:54;1.85;;;1.10;;
33760;SDS011;20084;47.912;19.044;2024-02-23T00:50:19;1.63;;;0.95;;
33760;SDS011;20084;47.912;19.044;2024-02-23T00:52:45;1.33;;;1.00;;
33760;SDS011;20084;47.912;19.044;2024-02-23T00:55:11;2.10;;;0.82;;
33760;SDS011;20084;47.912;19.044;2024-02-23T00:57:37;2.85;;;1.10;;
33760;SDS011;20084;47.912;19.044;2024-02-23T01:00:03;2.28;;;1.00;;
33760;SDS011;20084;47.912;19.044;2024-02-23T01:02:30;5.45;;;1.10;;
33760;SDS011;20084;47.912;19.044;2024-02-23T01:04:58;3.65;;;1.05;;
33760;SDS011;20084;47.912;19.044;2024-02-23T01:07:24;1.65;;;1.20;;
33760;SDS011;20084;47.912;19.044;2024-02-23T01:09:50;2.20;;;1.00;;
33760;SDS011;20084;47.912;19.044;2024-02-23T01:12:15;1.30;;;1.02;;
33760;SDS011;20084;47.912;19.044;2024-02-23T01:14:41;1.90;;;1.20;;
33760;SDS011;20084;47.912;19.044;2024-02-23T01:17:07;0.82;;;0.80;;
33760;SDS011;20084;47.912;19.044;2024-02-23T01:19:32;3.47;;;1.33;;
33760;SDS011;20084;47.912;19.044;2024-02-23T01:21:58;2.63;;;1.20;;
33760;SDS011;20084;47.912;19.044;2024-02-23T01:24:26;2.58;;;1.10;;
33760;SDS011;20084;47.912;19.044;2024-02-23T01:26:54;1.98;;;1.20;;
33760;SDS011;20084;47.912;19.044;2024-02-23T01:29:20;1.27;;;1.17;;
33760;SDS011;20084;47.912;19.044;2024-02-23T01:31:47;3.08;;;1.33;;
33760;SDS011;20084;47.912;19.044;2024-02-23T01:34:13;1.08;;;0.98;;
33760;SDS011;20084;47.912;19.044;2024-02-23T01:36:39;2.10;;;1.35;;
33760;SDS011;20084;47.912;19.044;2024-02-23T01:39:04;1.35;;;1.20;;
33760;SDS011;20084;47.912;19.044;2024-02-23T01:41:30;1.35;;;1.10;;
33760;SDS011;20084;47.912;19.044;2024-02-23T01:43:55;2.22;;;1.23;;
33760;SDS011;20084;47.912;19.044;2024-02-23T01:46:21;2.63;;;1.42;;
33760;SDS011;20084;47.912;19.044;2024-02-23T01:48:47;4.63;;;1.25;;
33760;SDS011;20084;47.912;19.044;2024-02-23T01:51:13;1.90;;;1.50;;
33760;SDS011;20084;47.912;19.044;2024-02-23T01:53:39;2.13;;;1.40;;
33760;SDS011;20084;47.912;19.044;2024-02-23T01:56:05;1.95;;;1.40;;
33760;SDS011;20084;47.912;19.044;2024-02-23T01:58:31;1.80;;;1.38;;
33760;SDS011;20084;47.912;19.044;2024-02-23T02:00:59;2.42;;;1.10;;
33760;SDS011;20084;47.912;19.044;2024-02-23T02:03:25;1.58;;;1.40;;
33760;SDS011;20084;47.912;19.044;2024-02-23T02:05:51;2.03;;;1.25;;
33760;SDS011;20084;47.912;19.044;2024-02-23T02:08:18;1.88;;;1.27;;
33760;SDS011;20084;47.912;19.044;2024-02-23T02:10:45;4.72;;;1.58;;
33760;SDS011;20084;47.912;19.044;2024-02-23T02:13:11;1.45;;;1.30;;
33760;SDS011;20084;47.912;19.044;2024-02-23T02:15:37;2.80;;;1.80;;
33760;SDS011;20084;47.912;19.044;2024-02-23T02:18:03;2.42;;;1.50;;
33760;SDS011;20084;47.912;19.044;2024-02-23T02:20:28;2.33;;;1.50;;
33760;SDS011;20084;47.912;19.044;2024-02-23T02:22:57;3.72;;;1.52;;
33760;SDS011;20084;47.912;19.044;2024-02-23T02:25:23;2.05;;;1.30;;
33760;SDS011;20084;47.912;19.044;2024-02-23T02:27:49;1.60;;;1.50;;
33760;SDS011;20084;47.912;19.044;2024-02-23T02:30:14;2.58;;;1.55;;
33760;SDS011;20084;47.912;19.044;2024-02-23T02:32:40;2.05;;;1.40;;
33760;SDS011;20084;47.912;19.044;2024-02-23T02:35:06;1.77;;;1.42;;
33760;SDS011;20084;47.912;19.044;2024-02-23T02:37:31;2.88;;;1.88;;
33760;SDS011;20084;47.912;19.044;2024-02-23T02:39:57;2.90;;;1.42;;
33760;SDS011;20084;47.912;19.044;2024-02-23T02:42:23;3.35;;;1.92;;
33760;SDS011;20084;47.912;19.044;2024-02-23T02:44:48;2.60;;;1.45;;
33760;SDS011;20084;47.912;19.044;2024-02-23T02:47:14;4.10;;;1.38;;
33760;SDS011;20084;47.912;19.044;2024-02-23T02:49:40;2.38;;;1.60;;
33760;SDS011;20084;47.912;19.044;2024-02-23T02:52:06;2.85;;;1.80;;
33760;SDS011;20084;47.912;19.044;2024-02-23T02:54:33;4.35;;;1.83;;
33760;SDS011;20084;47.912;19.044;2024-02-23T02:56:59;2.45;;;1.60;;
33760;SDS011;20084;47.912;19.044;2024-02-23T02:59:24;3.30;;;1.73;;
33760;SDS011;20084;47.912;19.044;2024-02-23T03:01:50;2.80;;;1.60;;
33760;SDS011;20084;47.912;19.044;2024-02-23T03:04:15;2.22;;;2.03;;
33760;SDS011;20084;47.912;19.044;2024-02-23T03:06:41;4.15;;;1.90;;
33760;SDS011;20084;47.912;19.044;2024-02-23T03:09:07;2.78;;;1.70;;
33760;SDS011;20084;47.912;19.044;2024-02-23T03:11:32;2.35;;;1.65;;
33760;SDS011;20084;47.912;19.044;2024-02-23T03:13:58;1.98;;;1.67;;
33760;SDS011;20084;47.912;19.044;2024-02-23T03:16:24;4.07;;;1.77;;
33760;SDS011;20084;47.912;19.044;2024-02-23T03:18:53;1.70;;;1.52;;
33760;SDS011;20084;47.912;19.044;2024-02-23T03:21:19;2.50;;;2.10;;
33760;SDS011;20084;47.912;19.044;2024-02-23T03:23:45;3.83;;;1.70;;
33760;SDS011;20084;47.912;19.044;2024-02-23T03:26:11;2.40;;;1.80;;
33760;SDS011;20084;47.912;19.044;2024-02-23T03:28:36;2.60;;;1.85;;
33760;SDS011;20084;47.912;19.044;2024-02-23T03:31:02;2.17;;;1.98;;
33760;SDS011;20084;47.912;19.044;2024-02-23T03:33:27;3.38;;;2.03;;
33760;SDS011;20084;47.912;19.044;2024-02-23T03:35:53;2.53;;;1.63;;
33760;SDS011;20084;47.912;19.044;2024-02-23T03:38:20;1.98;;;1.60;;
33760;SDS011;20084;47.912;19.044;2024-02-23T03:40:46;2.28;;;1.88;;
33760;SDS011;20084;47.912;19.044;2024-02-23T03:43:11;2.30;;;1.75;;
33760;SDS011;20084;47.912;19.044;2024-02-23T03:45:37;2.35;;;2.10;;
33760;SDS011;20084;47.912;19.044;2024-02-23T03:48:03;3.22;;;1.90;;
33760;SDS011;20084;47.912;19.044;2024-02-23T03:50:29;2.60;;;2.05;;
33760;SDS011;20084;47.912;19.044;2024-02-23T03:52:55;2.42;;;1.90;;
33760;SDS011;20084;47.912;19.044;2024-02-23T03:55:21;3.42;;;1.90;;
33760;SDS011;20084;47.912;19.044;2024-02-23T03:57:47;3.30;;;1.95;;
33760;SDS011;20084;47.912;19.044;2024-02-23T04:00:13;2.72;;;1.88;;
33760;SDS011;20084;47.912;19.044;2024-02-23T04:02:39;1.98;;;1.67;;
33760;SDS011;20084;47.912;19.044;2024-02-23T04:05:05;3.40;;;1.90;;
33760;SDS011;20084;47.912;19.044;2024-02-23T04:07:31;2.00;;;1.60;;
33760;SDS011;20084;47.912;19.044;2024-02-23T04:09:57;2.30;;;2.10;;
33760;SDS011;20084;47.912;19.044;2024-02-23T04:12:23;3.35;;;2.20;;
33760;SDS011;20084;47.912;19.044;2024-02-23T04:14:49;3.72;;;1.95;;
33760;SDS011;20084;47.912;19.044;2024-02-23T04:17:15;3.33;;;2.45;;
33760;SDS011;20084;47.912;19.044;2024-02-23T04:19:41;3.60;;;2.13;;
33760;SDS011;20084;47.912;19.044;2024-02-23T04:22:07;3.25;;;2.10;;
33760;SDS011;20084;47.912;19.044;2024-02-23T04:24:37;2.60;;;2.05;;
33760;SDS011;20084;47.912;19.044;2024-02-23T04:27:04;6.47;;;2.60;;
33760;SDS011;20084;47.912;19.044;2024-02-23T04:29:30;3.38;;;2.30;;
33760;SDS011;20084;47.912;19.044;2024-02-23T04:31:57;5.05;;;2.45;;
33760;SDS011;20084;47.912;19.044;2024-02-23T04:34:23;7.63;;;2.90;;
33760;SDS011;20084;47.912;19.044;2024-02-23T04:36:49;4.38;;;2.72;;
33760;SDS011;20084;47.912;19.044;2024-02-23T04:39:14;6.40;;;3.15;;
33760;SDS011;20084;47.912;19.044;2024-02-23T04:41:40;5.82;;;2.95;;
33760;SDS011;20084;47.912;19.044;2024-02-23T04:44:05;3.22;;;2.72;;
33760;SDS011;20084;47.912;19.044;2024-02-23T04:46:31;5.63;;;3.35;;
33760;SDS011;20084;47.912;19.044;2024-02-23T04:48:57;3.40;;;2.42;;
33760;SDS011;20084;47.912;19.044;2024-02-23T04:51:22;8.10;;;4.20;;
33760;SDS011;20084;47.912;19.044;2024-02-23T04:53:48;9.07;;;4.13;;
33760;SDS011;20084;47.912;19.044;2024-02-23T04:56:14;4.82;;;3.83;;
33760;SDS011;20084;47.912;19.044;2024-02-23T04:58:40;5.10;;;3.20;;
33760;SDS011;20084;47.912;19.044;2024-02-23T05:01:09;5.13;;;3.20;;
33760;SDS011;20084;47.912;19.044;2024-02-23T05:03:35;3.60;;;2.88;;
33760;SDS011;20084;47.912;19.044;2024-02-23T05:06:02;2.67;;;2.25;;
33760;SDS011;20084;47.912;19.044;2024-02-23T05:08:28;3.53;;;2.58;;
33760;SDS011;20084;47.912;19.044;2024-02-23T05:10:55;24.52;;;13.35;;
33760;SDS011;20084;47.912;19.044;2024-02-23T05:13:23;9.93;;;5.88;;
33760;SDS011;20084;47.912;19.044;2024-02-23T05:15:49;7.07;;;4.75;;
33760;SDS011;20084;47.912;19.044;2024-02-23T05:18:15;29.77;;;17.80;;
33760;SDS011;20084;47.912;19.044;2024-02-23T05:20:40;63.10;;;35.22;;
33760;SDS011;20084;47.912;19.044;2024-02-23T05:23:06;41.30;;;24.98;;
33760;SDS011;20084;47.912;19.044;2024-02-23T05:25:32;42.75;;;27.88;;
33760;SDS011;20084;47.912;19.044;2024-02-23T05:27:58;6.78;;;4.82;;
33760;SDS011;20084;47.912;19.044;2024-02-23T05:30:24;8.15;;;4.60;;
33760;SDS011;20084;47.912;19.044;2024-02-23T05:32:51;4.10;;;2.80;;
33760;SDS011;20084;47.912;19.044;2024-02-23T05:35:17;3.28;;;2.42;;
33760;SDS011;20084;47.912;19.044;2024-02-23T05:37:43;31.05;;;18.52;;
33760;SDS011;20084;47.912;19.044;2024-02-23T05:40:09;24.10;;;16.05;;
33760;SDS011;20084;47.912;19.044;2024-02-23T05:42:37;6.30;;;5.70;;
33760;SDS011;20084;47.912;19.044;2024-02-23T05:45:03;6.32;;;4.50;;
33760;SDS011;20084;47.912;19.044;2024-02-23T05:47:34;5.82;;;3.63;;
33760;SDS011;20084;47.912;19.044;2024-02-23T05:50:01;4.13;;;3.65;;
33760;SDS011;20084;47.912;19.044;2024-02-23T05:52:33;3.75;;;2.97;;
33760;SDS011;20084;47.912;19.044;2024-02-23T05:55:01;5.22;;;4.72;;
33760;SDS011;20084;47.912;19.044;2024-02-23T05:57:28;5.78;;;4.47;;
33760;SDS011;20084;47.912;19.044;2024-02-23T05:59:54;3.40;;;3.10;;
33760;SDS011;20084;47.912;19.044;2024-02-23T06:02:20;3.40;;;3.10;;
33760;SDS011;20084;47.912;19.044;2024-02-23T06:04:47;2.80;;;2.50;;
33760;SDS011;20084;47.912;19.044;2024-02-23T06:07:13;1.95;;;1.85;;
33760;SDS011;20084;47.912;19.044;2024-02-23T06:09:40;2.67;;;2.33;;
33760;SDS011;20084;47.912;19.044;2024-02-23T06:12:06;3.35;;;2.33;;
33760;SDS011;20084;47.912;19.044;2024-02-23T06:14:33;2.30;;;1.75;;
33760;SDS011;20084;47.912;19.044;2024-02-23T06:16:59;0.95;;;0.80;;
33760;SDS011;20084;47.912;19.044;2024-02-23T06:19:24;2.30;;;0.82;;
33760;SDS011;20084;47.912;19.044;2024-02-23T06:21:50;0.47;;;0.43;;
33760;SDS011;20084;47.912;19.044;2024-02-23T06:24:16;1.23;;;0.60;;
33760;SDS011;20084;47.912;19.044;2024-02-23T06:26:42;0.45;;;0.43;;
33760;SDS011;20084;47.912;19.044;2024-02-23T06:29:08;1.05;;;0.40;;
33760;SDS011;20084;47.912;19.044;2024-02-23T06:31:36;0.85;;;0.80;;
33760;SDS011;20084;47.912;19.044;2024-02-23T06:34:03;4.53;;;0.88;;
33760;SDS011;20084;47.912;19.044;2024-02-23T06:36:29;0.30;;;0.30;;
33760;SDS011;20084;47.912;19.044;2024-02-23T06:38:54;0.45;;;0.30;;
33760;SDS011;20084;47.912;19.044;2024-02-23T06:41:20;1.02;;;0.43;;
33760;SDS011;20084;47.912;19.044;2024-02-23T06:43:46;0.80;;;0.40;;
33760;SDS011;20084;47.912;19.044;2024-02-23T06:46:11;1.67;;;0.50;;
33760;SDS011;20084;47.912;19.044;2024-02-23T06:48:37;0.40;;;0.30;;
33760;SDS011;20084;47.912;19.044;2024-02-23T06:51:04;5.50;;;4.07;;
33760;SDS011;20084;47.912;19.044;2024-02-23T06:53:30;1.55;;;1.02;;
33760;SDS011;20084;47.912;19.044;2024-02-23T06:55:55;0.80;;;0.80;;
33760;SDS011;20084;47.912;19.044;2024-02-23T06:58:21;0.77;;;0.35;;
33760;SDS011;20084;47.912;19.044;2024-02-23T07:00:47;0.63;;;0.63;;
33760;SDS011;20084;47.912;19.044;2024-02-23T07:03:13;60.25;;;29.35;;
33760;SDS011;20084;47.912;19.044;2024-02-23T07:05:40;88.28;;;46.20;;
33760;SDS011;20084;47.912;19.044;2024-02-23T07:08:07;7.93;;;6.32;;
33760;SDS011;20084;47.912;19.044;2024-02-23T07:10:33;4.78;;;3.97;;
33760;SDS011;20084;47.912;19.044;2024-02-23T07:12:59;22.55;;;12.02;;
33760;SDS011;20084;47.912;19.044;2024-02-23T07:15:24;61.50;;;37.90;;
33760;SDS011;20084;47.912;19.044;2024-02-23T07:17:51;65.38;;;54.20;;
33760;SDS011;20084;47.912;19.044;2024-02-23T07:20:17;8.95;;;8.15;;
33760;SDS011;20084;47.912;19.044;2024-02-23T07:22:43;2.40;;;1.80;;
33760;SDS011;20084;47.912;19.044;2024-02-23T07:25:10;1.05;;;0.95;;
33760;SDS011;20084;47.912;19.044;2024-02-23T07:27:36;0.77;;;0.60;;
33760;SDS011;20084;47.912;19.044;2024-02-23T07:30:01;0.88;;;0.65;;
33760;SDS011;20084;47.912;19.044;2024-02-23T07:32:29;0.20;;;0.20;;
33760;SDS011;20084;47.912;19.044;2024-02-23T07:34:55;1.10;;;1.00;;
33760;SDS011;20084;47.912;19.044;2024-02-23T07:37:21;1.35;;;1.20;;
33760;SDS011;20084;47.912;19.044;2024-02-23T07:39:46;5.97;;;5.43;;
33760;SDS011;20084;47.912;19.044;2024-02-23T07:42:12;0.73;;;0.47;;
33760;SDS011;20084;47.912;19.044;2024-02-23T07:44:39;0.50;;;0.50;;
33760;SDS011;20084;47.912;19.044;2024-02-23T07:47:05;0.45;;;0.20;;
33760;SDS011;20084;47.912;19.044;2024-02-23T07:49:31;0.95;;;0.50;;
33760;SDS011;20084;47.912;19.044;2024-02-23T07:51:56;1.20;;;0.45;;
33760;SDS011;20084;47.912;19.044;2024-02-23T07:54:22;0.98;;;0.28;;
33760;SDS011;20084;47.912;19.044;2024-02-23T07:56:48;2.00;;;0.28;;
33760;SDS011;20084;47.912;19.044;2024-02-23T07:59:13;0.20;;;0.20;;
33760;SDS011;20084;47.912;19.044;2024-02-23T08:01:39;0.35;;;0.20;;
33760;SDS011;20084;47.912;19.044;2024-02-23T08:04:05;0.00;;;0.00;;
33760;SDS011;20084;47.912;19.044;2024-02-23T08:06:31;0.38;;;0.20;;
33760;SDS011;20084;47.912;19.044;2024-02-23T08:08:56;0.75;;;0.20;;
33760;SDS011;20084;47.912;19.044;2024-02-23T08:11:22;0.20;;;0.20;;
33760;SDS011;20084;47.912;19.044;2024-02-23T08:13:47;1.10;;;0.55;;
33760;SDS011;20084;47.912;19.044;2024-02-23T08:16:15;0.47;;;0.30;;
33760;SDS011;20084;47.912;19.044;2024-02-23T08:18:42;0.30;;;0.30;;
33760;SDS011;20084;47.912;19.044;2024-02-23T08:21:07;0.20;;;0.10;;
33760;SDS011;20084;47.912;19.044;2024-02-23T08:23:35;0.30;;;0.25;;
33760;SDS011;20084;47.912;19.044;2024-02-23T08:26:01;0.50;;;0.30;;
33760;SDS011;20084;47.912;19.044;2024-02-23T08:28:27;0.28;;;0.15;;
33760;SDS011;20084;47.912;19.044;2024-02-23T08:30:52;0.60;;;0.38;;
33760;SDS011;20084;47.912;19.044;2024-02-23T08:33:18;3.85;;;0.30;;
33760;SDS011;20084;47.912;19.044;2024-02-23T08:35:43;0.20;;;0.20;;
33760;SDS011;20084;47.912;19.044;2024-02-23T08:38:10;0.28;;;0.20;;
33760;SDS011;20084;47.912;19.044;2024-02-23T08:40:36;1.67;;;0.40;;
33760;SDS011;20084;47.912;19.044;2024-02-23T08:43:01;2.40;;;0.45;;
33760;SDS011;20084;47.912;19.044;2024-02-23T08:45:28;1.75;;;0.35;;
33760;SDS011;20084;47.912;19.044;2024-02-23T08:47:53;0.70;;;0.70;;
33760;SDS011;20084;47.912;19.044;2024-02-23T08:50:19;1.27;;;0.20;;
33760;SDS011;20084;47.912;19.044;2024-02-23T08:52:44;0.10;;;0.10;;
33760;SDS011;20084;47.912;19.044;2024-02-23T08:55:10;0.90;;;0.20;;
33760;SDS011;20084;47.912;19.044;2024-02-23T08:57:36;0.47;;;0.30;;
33760;SDS011;20084;47.912;19.044;2024-02-23T09:00:03;1.35;;;0.30;;
33760;SDS011;20084;47.912;19.044;2024-02-23T09:02:30;0.52;;;0.20;;
33760;SDS011;20084;47.912;19.044;2024-02-23T09:04:57;0.98;;;0.40;;
33760;SDS011;20084;47.912;19.044;2024-02-23T09:07:23;2.95;;;0.63;;
33760;SDS011;20084;47.912;19.044;2024-02-23T09:09:49;0.40;;;0.40;;
33760;SDS011;20084;47.912;19.044;2024-02-23T09:12:17;0.47;;;0.47;;
33760;SDS011;20084;47.912;19.044;2024-02-23T09:14:43;0.30;;;0.20;;
33760;SDS011;20084;47.912;19.044;2024-02-23T09:17:09;0.65;;;0.30;;
33760;SDS011;20084;47.912;19.044;2024-02-23T09:19:36;0.50;;;0.50;;
33760;SDS011;20084;47.912;19.044;2024-02-23T09:22:02;0.28;;;0.25;;
33760;SDS011;20084;47.912;19.044;2024-02-23T09:24:28;1.10;;;0.45;;
33760;SDS011;20084;47.912;19.044;2024-02-23T09:26:53;3.38;;;0.60;;
33760;SDS011;20084;47.912;19.044;2024-02-23T09:29:19;0.20;;;0.20;;
33760;SDS011;20084;47.912;19.044;2024-02-23T09:31:45;3.40;;;0.40;;
33760;SDS011;20084;47.912;19.044;2024-02-23T09:34:10;1.20;;;0.50;;
33760;SDS011;20084;47.912;19.044;2024-02-23T09:36:36;1.15;;;0.50;;
33760;SDS011;20084;47.912;19.044;2024-02-23T09:39:01;0.20;;;0.20;;
33760;SDS011;20084;47.912;19.044;2024-02-23T09:41:29;0.35;;;0.30;;
33760;SDS011;20084;47.912;19.044;2024-02-23T09:43:55;0.63;;;0.40;;
33760;SDS011;20084;47.912;19.044;2024-02-23T09:46:23;0.40;;;0.28;;
33760;SDS011;20084;47.912;19.044;2024-02-23T09:48:51;0.40;;;0.40;;
33760;SDS011;20084;47.912;19.044;2024-02-23T09:51:16;0.90;;;0.40;;
33760;SDS011;20084;47.912;19.044;2024-02-23T09:53:42;0.30;;;0.30;;
33760;SDS011;20084;47.912;19.044;2024-02-23T09:56:09;0.75;;;0.50;;
33760;SDS011;20084;47.912;19.044;2024-02-23T09:58:38;1.83;;;0.63;;
33760;SDS011;20084;47.912;19.044;2024-02-23T10:01:06;1.40;;;0.50;;
33760;SDS011;20084;47.912;19.044;2024-02-23T10:03:32;0.55;;;0.40;;
33760;SDS011;20084;47.912;19.044;2024-02-23T10:05:58;0.82;;;0.50;;
33760;SDS011;20084;47.912;19.044;2024-02-23T10:08:27;0.50;;;0.50;;
33760;SDS011;20084;47.912;19.044;2024-02-23T10:10:54;0.47;;;0.40;;
33760;SDS011;20084;47.912;19.044;2024-02-23T10:13:20;1.08;;;0.50;;
33760;SDS011;20084;47.912;19.044;2024-02-23T10:15:52;0.95;;;0.60;;
33760;SDS011;20084;47.912;19.044;2024-02-23T10:18:18;1.45;;;0.40;;
33760;SDS011;20084;47.912;19.044;2024-02-23T10:20:44;1.33;;;0.50;;
33760;SDS011;20084;47.912;19.044;2024-02-23T10:23:11;0.60;;;0.60;;
33760;SDS011;20084;47.912;19.044;2024-02-23T10:25:37;0.70;;;0.50;;
33760;SDS011;20084;47.912;19.044;2024-02-23T10:28:03;0.40;;;0.30;;
33760;SDS011;20084;47.912;19.044;2024-02-23T10:30:30;0.93;;;0.32;;
33760;SDS011;20084;47.912;19.044;2024-02-23T10:32:56;0.63;;;0.55;;
33760;SDS011;20084;47.912;19.044;2024-02-23T10:35:23;1.58;;;0.40;;
33760;SDS011;20084;47.912;19.044;2024-02-23T10:37:50;0.63;;;0.20;;
33760;SDS011;20084;47.912;19.044;2024-02-23T10:40:18;0.73;;;0.30;;
33760;SDS011;20084;47.912;19.044;2024-02-23T10:42:45;1.02;;;0.30;;
33760;SDS011;20084;47.912;19.044;2024-02-23T10:45:20;0.30;;;0.30;;
33760;SDS011;20084;47.912;19.044;2024-02-23T10:47:52;1.85;;;0.28;;
33760;SDS011;20084;47.912;19.044;2024-02-23T10:50:20;0.30;;;0.30;;
33760;SDS011;20084;47.912;19.044;2024-02-23T10:52:48;2.22;;;0.50;;
33760;SDS011;20084;47.912;19.044;2024-02-23T10:55:15;0.40;;;0.35;;
33760;SDS011;20084;47.912;19.044;2024-02-23T10:57:41;0.82;;;0.40;;
33760;SDS011;20084;47.912;19.044;2024-02-23T11:00:08;0.88;;;0.40;;
33760;SDS011;20084;47.912;19.044;2024-02-23T11:02:41;1.38;;;0.38;;
33760;SDS011;20084;47.912;19.044;2024-02-23T11:05:10;0.40;;;0.40;;
33760;SDS011;20084;47.912;19.044;2024-02-23T11:07:39;0.38;;;0.28;;
33760;SDS011;20084;47.912;19.044;2024-02-23T11:10:05;1.00;;;0.60;;
33760;SDS011;20084;47.912;19.044;2024-02-23T11:12:31;1.02;;;0.93;;
33760;SDS011;20084;47.912;19.044;2024-02-23T11:14:59;3.45;;;0.57;;
33760;SDS011;20084;47.912;19.044;2024-02-23T11:17:29;0.73;;;0.50;;
33760;SDS011;20084;47.912;19.044;2024-02-23T11:19:56;1.15;;;0.38;;
33760;SDS011;20084;47.912;19.044;2024-02-23T11:22:31;0.70;;;0.57;;
33760;SDS011;20084;47.912;19.044;2024-02-23T11:25:06;1.23;;;1.05;;
33760;SDS011;20084;47.912;19.044;2024-02-23T11:27:36;1.50;;;0.90;;
33760;SDS011;20084;47.912;19.044;2024-02-23T11:32:37;0.80;;;0.52;;
33760;SDS011;20084;47.912;19.044;2024-02-23T11:35:05;1.45;;;0.77;;
33760;SDS011;20084;47.912;19.044;2024-02-23T11:37:32;0.40;;;0.40;;
33760;SDS011;20084;47.912;19.044;2024-02-23T11:39:58;0.50;;;0.38;;
33760;SDS011;20084;47.912;19.044;2024-02-23T11:42:27;0.57;;;0.52;;
33760;SDS011;20084;47.912;19.044;2024-02-23T11:44:52;0.60;;;0.60;;
33760;SDS011;20084;47.912;19.044;2024-02-23T11:47:23;1.65;;;0.70;;
33760;SDS011;20084;47.912;19.044;2024-02-23T11:49:49;0.57;;;0.50;;
33760;SDS011;20084;47.912;19.044;2024-02-23T11:52:15;0.82;;;0.60;;
33760;SDS011;20084;47.912;19.044;2024-02-23T11:54:42;0.80;;;0.55;;
33760;SDS011;20084;47.912;19.044;2024-02-23T11:57:07;1.95;;;0.77;;
33760;SDS011;20084;47.912;19.044;2024-02-23T11:59:33;5.35;;;0.77;;
33760;SDS011;20084;47.912;19.044;2024-02-23T12:01:59;1.35;;;1.10;;
33760;SDS011;20084;47.912;19.044;2024-02-23T12:04:26;0.60;;;0.52;;
33760;SDS011;20084;47.912;19.044;2024-02-23T12:06:53;2.33;;;0.57;;
33760;SDS011;20084;47.912;19.044;2024-02-23T12:09:19;0.57;;;0.50;;
33760;SDS011;20084;47.912;19.044;2024-02-23T12:11:45;1.05;;;0.73;;
33760;SDS011;20084;47.912;19.044;2024-02-23T12:14:11;0.73;;;0.73;;
33760;SDS011;20084;47.912;19.044;2024-02-23T12:16:36;3.55;;;0.65;;
33760;SDS011;20084;47.912;19.044;2024-02-23T12:19:04;8.20;;;1.20;;
33760;SDS011;20084;47.912;19.044;2024-02-23T12:21:30;2.75;;;1.60;;
33760;SDS011;20084;47.912;19.044;2024-02-23T12:23:59;4.38;;;0.80;;
33760;SDS011;20084;47.912;19.044;2024-02-23T12:26:24;1.30;;;0.55;;
33760;SDS011;20084;47.912;19.044;2024-02-23T12:28:50;3.10;;;0.88;;
33760;SDS011;20084;47.912;19.044;2024-02-23T12:31:15;0.55;;;0.43;;
33760;SDS011;20084;47.912;19.044;2024-02-23T12:33:48;0.73;;;0.60;;
33760;SDS011;20084;47.912;19.044;2024-02-23T12:36:13;3.47;;;0.55;;
33760;SDS011;20084;47.912;19.044;2024-02-23T12:38:40;2.30;;;0.60;;
33760;SDS011;20084;47.912;19.044;2024-02-23T12:41:06;2.47;;;0.35;;
33760;SDS011;20084;47.912;19.044;2024-02-23T12:43:31;0.82;;;0.50;;
33760;SDS011;20084;47.912;19.044;2024-02-23T12:45:57;1.55;;;0.98;;
33760;SDS011;20084;47.912;19.044;2024-02-23T12:48:23;0.73;;;0.73;;
33760;SDS011;20084;47.912;19.044;2024-02-23T12:50:49;0.80;;;0.50;;
33760;SDS011;20084;47.912;19.044;2024-02-23T12:53:31;3.60;;;0.75;;
33760;SDS011;20084;47.912;19.044;2024-02-23T12:58:43;0.77;;;0.77;;
33760;SDS011;20084;47.912;19.044;2024-02-23T13:01:10;1.65;;;0.80;;
33760;SDS011;20084;47.912;19.044;2024-02-23T13:03:37;2.20;;;0.68;;
33760;SDS011;20084;47.912;19.044;2024-02-23T13:06:05;0.88;;;0.57;;
33760;SDS011;20084;47.912;19.044;2024-02-23T13:08:31;0.35;;;0.30;;
33760;SDS011;20084;47.912;19.044;2024-02-23T13:10:56;0.52;;;0.50;;
33760;SDS011;20084;47.912;19.044;2024-02-23T13:13:23;0.55;;;0.52;;
33760;SDS011;20084;47.912;19.044;2024-02-23T13:15:50;4.45;;;0.80;;
33760;SDS011;20084;47.912;19.044;2024-02-23T13:18:16;0.82;;;0.30;;
33760;SDS011;20084;47.912;19.044;2024-02-23T13:20:42;11.30;;;0.95;;
33760;SDS011;20084;47.912;19.044;2024-02-23T13:23:08;0.55;;;0.35;;
33760;SDS011;20084;47.912;19.044;2024-02-23T13:25:36;1.20;;;0.45;;
33760;SDS011;20084;47.912;19.044;2024-02-23T13:28:02;0.50;;;0.40;;
33760;SDS011;20084;47.912;19.044;2024-02-23T13:30:29;0.70;;;0.40;;
33760;SDS011;20084;47.912;19.044;2024-02-23T13:32:55;2.45;;;0.60;;
33760;SDS011;20084;47.912;19.044;2024-02-23T13:35:21;0.63;;;0.38;;
33760;SDS011;20084;47.912;19.044;2024-02-23T13:37:47;0.40;;;0.40;;
33760;SDS011;20084;47.912;19.044;2024-02-23T13:40:13;1.30;;;0.57;;
33760;SDS011;20084;47.912;19.044;2024-02-23T13:42:39;8.52;;;1.27;;
33760;SDS011;20084;47.912;19.044;2024-02-23T13:45:06;4.25;;;2.33;;
33760;SDS011;20084;47.912;19.044;2024-02-23T13:47:32;4.28;;;2.17;;
33760;SDS011;20084;47.912;19.044;2024-02-23T13:49:59;5.25;;;3.78;;
33760;SDS011;20084;47.912;19.044;2024-02-23T13:52:24;7.63;;;4.40;;
33760;SDS011;20084;47.912;19.044;2024-02-23T13:54:50;12.57;;;4.68;;
33760;SDS011;20084;47.912;19.044;2024-02-23T13:57:16;5.60;;;5.10;;
33760;SDS011;20084;47.912;19.044;2024-02-23T13:59:42;4.43;;;3.17;;
33760;SDS011;20084;47.912;19.044;2024-02-23T14:02:07;10.18;;;2.95;;
33760;SDS011;20084;47.912;19.044;2024-02-23T14:04:33;10.70;;;3.10;;
33760;SDS011;20084;47.912;19.044;2024-02-23T14:06:59;8.70;;;3.38;;
33760;SDS011;20084;47.912;19.044;2024-02-23T14:09:24;27.08;;;13.15;;
33760;SDS011;20084;47.912;19.044;2024-02-23T14:11:50;7.00;;;4.03;;
33760;SDS011;20084;47.912;19.044;2024-02-23T14:14:16;4.40;;;3.40;;
33760;SDS011;20084;47.912;19.044;2024-02-23T14:16:42;40.00;;;24.15;;
33760;SDS011;20084;47.912;19.044;2024-02-23T14:19:08;18.60;;;13.60;;
33760;SDS011;20084;47.912;19.044;2024-02-23T14:21:33;10.88;;;5.90;;
33760;SDS011;20084;47.912;19.044;2024-02-23T14:24:01;23.38;;;5.38;;
33760;SDS011;20084;47.912;19.044;2024-02-23T14:26:27;4.30;;;3.70;;
33760;SDS011;20084;47.912;19.044;2024-02-23T14:28:53;4.60;;;3.80;;
33760;SDS011;20084;47.912;19.044;2024-02-23T14:31:19;4.70;;;4.03;;
33760;SDS011;20084;47.912;19.044;2024-02-23T14:33:44;4.20;;;3.80;;